sensor_id;sensor_type;location;lat;lon;timestamp;P1;durP1;ratioP1;P2;durP2;ratioP2
40787;SDS011;26497;52.494;7.546;2022-07-11T00:02:02;16.67;;;6.43;;
40787;SDS011;26497;52.494;7.546;2022-07-11T00:04:31;16.95;;;7.20;;
40787;SDS011;26497;52.494;7.546;2022-07-11T00:06:59;12.98;;;6.90;;
40787;SDS011;26497;52.494;7.546;2022-07-11T00:09:27;15.00;;;7.75;;
40787;SDS011;26497;52.494;7.546;2022-07-11T00:11:55;21.92;;;8.27;;
40787;SDS011;26497;52.494;7.546;2022-07-11T00:14:23;10.73;;;6.35;;
40787;SDS011;26497;52.494;7.546;2022-07-11T00:16:51;20.17;;;7.07;;
40787;SDS011;26497;52.494;7.546;2022-07-11T00:19:20;25.35;;;8.05;;
40787;SDS011;26497;52.494;7.546;2022-07-11T00:21:48;14.70;;;6.97;;
40787;SDS011;26497;52.494;7.546;2022-07-11T00:24:15;13.02;;;5.90;;
40787;SDS011;26497;52.494;7.546;2022-07-11T00:26:44;22.00;;;6.57;;
40787;SDS011;26497;52.494;7.546;2022-07-11T00:29:12;17.00;;;5.50;;
40787;SDS011;26497;52.494;7.546;2022-07-11T00:31:39;27.15;;;6.53;;
40787;SDS011;26497;52.494;7.546;2022-07-11T00:34:06;14.32;;;6.05;;
40787;SDS011;26497;52.494;7.546;2022-07-11T00:36:34;19.30;;;6.68;;
40787;SDS011;26497;52.494;7.546;2022-07-11T00:39:02;11.80;;;4.80;;
40787;SDS011;26497;52.494;7.546;2022-07-11T00:41:30;18.05;;;6.32;;
40787;SDS011;26497;52.494;7.546;2022-07-11T00:43:57;16.48;;;4.88;;
40787;SDS011;26497;52.494;7.546;2022-07-11T00:46:26;15.20;;;5.68;;
40787;SDS011;26497;52.494;7.546;2022-07-11T00:48:54;17.23;;;5.65;;
40787;SDS011;26497;52.494;7.546;2022-07-11T00:51:22;10.27;;;5.57;;
40787;SDS011;26497;52.494;7.546;2022-07-11T00:53:52;12.40;;;5.55;;
40787;SDS011;26497;52.494;7.546;2022-07-11T00:56:21;9.02;;;4.85;;
40787;SDS011;26497;52.494;7.546;2022-07-11T00:58:50;21.65;;;5.78;;
40787;SDS011;26497;52.494;7.546;2022-07-11T01:01:19;9.10;;;4.70;;
40787;SDS011;26497;52.494;7.546;2022-07-11T01:03:46;18.20;;;5.55;;
40787;SDS011;26497;52.494;7.546;2022-07-11T01:06:14;31.67;;;5.65;;
40787;SDS011;26497;52.494;7.546;2022-07-11T01:08:41;17.20;;;5.13;;
40787;SDS011;26497;52.494;7.546;2022-07-11T01:11:11;10.48;;;5.20;;
40787;SDS011;26497;52.494;7.546;2022-07-11T01:13:40;7.70;;;5.32;;
40787;SDS011;26497;52.494;7.546;2022-07-11T01:16:08;11.98;;;4.45;;
40787;SDS011;26497;52.494;7.546;2022-07-11T01:18:37;26.80;;;5.03;;
40787;SDS011;26497;52.494;7.546;2022-07-11T01:21:08;11.05;;;4.95;;
40787;SDS011;26497;52.494;7.546;2022-07-11T01:23:46;9.73;;;4.00;;
40787;SDS011;26497;52.494;7.546;2022-07-11T01:26:14;18.27;;;3.72;;
40787;SDS011;26497;52.494;7.546;2022-07-11T01:28:42;16.73;;;4.80;;
40787;SDS011;26497;52.494;7.546;2022-07-11T01:31:10;13.93;;;3.45;;
40787;SDS011;26497;52.494;7.546;2022-07-11T01:33:37;14.63;;;4.80;;
40787;SDS011;26497;52.494;7.546;2022-07-11T01:36:04;8.90;;;3.33;;
40787;SDS011;26497;52.494;7.546;2022-07-11T01:38:32;8.75;;;4.60;;
40787;SDS011;26497;52.494;7.546;2022-07-11T01:41:01;13.60;;;3.55;;
40787;SDS011;26497;52.494;7.546;2022-07-11T01:43:28;10.00;;;4.65;;
40787;SDS011;26497;52.494;7.546;2022-07-11T01:45:55;5.10;;;3.63;;
40787;SDS011;26497;52.494;7.546;2022-07-11T01:48:22;5.95;;;4.20;;
40787;SDS011;26497;52.494;7.546;2022-07-11T01:50:49;8.43;;;3.42;;
40787;SDS011;26497;52.494;7.546;2022-07-11T01:53:16;7.38;;;2.92;;
40787;SDS011;26497;52.494;7.546;2022-07-11T01:55:44;5.22;;;3.85;;
40787;SDS011;26497;52.494;7.546;2022-07-11T01:58:12;16.63;;;4.55;;
40787;SDS011;26497;52.494;7.546;2022-07-11T02:00:39;16.38;;;3.78;;
40787;SDS011;26497;52.494;7.546;2022-07-11T02:03:06;17.90;;;3.60;;
40787;SDS011;26497;52.494;7.546;2022-07-11T02:05:33;7.63;;;3.03;;
40787;SDS011;26497;52.494;7.546;2022-07-11T02:08:04;7.70;;;3.38;;
40787;SDS011;26497;52.494;7.546;2022-07-11T02:10:38;10.48;;;3.10;;
40787;SDS011;26497;52.494;7.546;2022-07-11T02:13:08;9.57;;;4.00;;
40787;SDS011;26497;52.494;7.546;2022-07-11T02:15:37;6.07;;;3.53;;
40787;SDS011;26497;52.494;7.546;2022-07-11T02:18:05;16.85;;;4.10;;
40787;SDS011;26497;52.494;7.546;2022-07-11T02:20:32;5.57;;;3.42;;
40787;SDS011;26497;52.494;7.546;2022-07-11T02:23:00;8.13;;;3.53;;
40787;SDS011;26497;52.494;7.546;2022-07-11T02:25:28;9.07;;;4.22;;
40787;SDS011;26497;52.494;7.546;2022-07-11T02:27:56;11.95;;;4.05;;
40787;SDS011;26497;52.494;7.546;2022-07-11T02:30:23;7.50;;;3.92;;
40787;SDS011;26497;52.494;7.546;2022-07-11T02:32:52;10.18;;;4.30;;
40787;SDS011;26497;52.494;7.546;2022-07-11T02:35:19;9.18;;;4.15;;
40787;SDS011;26497;52.494;7.546;2022-07-11T02:37:47;10.07;;;5.00;;
40787;SDS011;26497;52.494;7.546;2022-07-11T02:40:14;12.98;;;4.40;;
40787;SDS011;26497;52.494;7.546;2022-07-11T02:42:41;6.78;;;3.75;;
40787;SDS011;26497;52.494;7.546;2022-07-11T02:45:09;9.38;;;4.20;;
40787;SDS011;26497;52.494;7.546;2022-07-11T02:47:36;9.38;;;4.43;;
40787;SDS011;26497;52.494;7.546;2022-07-11T02:50:06;8.65;;;3.47;;
40787;SDS011;26497;52.494;7.546;2022-07-11T02:52:36;13.00;;;4.65;;
40787;SDS011;26497;52.494;7.546;2022-07-11T02:55:04;4.13;;;3.25;;
40787;SDS011;26497;52.494;7.546;2022-07-11T02:57:33;8.43;;;2.67;;
40787;SDS011;26497;52.494;7.546;2022-07-11T03:00:01;15.98;;;4.50;;
40787;SDS011;26497;52.494;7.546;2022-07-11T03:02:29;13.43;;;4.00;;
40787;SDS011;26497;52.494;7.546;2022-07-11T03:04:56;8.32;;;4.20;;
40787;SDS011;26497;52.494;7.546;2022-07-11T03:07:25;8.07;;;3.95;;
40787;SDS011;26497;52.494;7.546;2022-07-11T03:09:52;10.32;;;3.70;;
40787;SDS011;26497;52.494;7.546;2022-07-11T03:12:19;12.65;;;4.63;;
40787;SDS011;26497;52.494;7.546;2022-07-11T03:14:47;7.28;;;4.07;;
40787;SDS011;26497;52.494;7.546;2022-07-11T03:17:14;9.77;;;3.70;;
40787;SDS011;26497;52.494;7.546;2022-07-11T03:19:42;13.38;;;3.90;;
40787;SDS011;26497;52.494;7.546;2022-07-11T03:22:09;10.65;;;3.90;;
40787;SDS011;26497;52.494;7.546;2022-07-11T03:24:37;3.97;;;3.47;;
40787;SDS011;26497;52.494;7.546;2022-07-11T03:27:06;4.43;;;3.20;;
40787;SDS011;26497;52.494;7.546;2022-07-11T03:29:33;4.55;;;3.22;;
40787;SDS011;26497;52.494;7.546;2022-07-11T03:32:00;14.52;;;4.57;;
40787;SDS011;26497;52.494;7.546;2022-07-11T03:34:27;9.82;;;3.92;;
40787;SDS011;26497;52.494;7.546;2022-07-11T03:36:54;5.85;;;3.75;;
40787;SDS011;26497;52.494;7.546;2022-07-11T03:39:21;8.52;;;3.47;;
40787;SDS011;26497;52.494;7.546;2022-07-11T03:41:50;9.43;;;4.00;;
40787;SDS011;26497;52.494;7.546;2022-07-11T03:44:17;11.60;;;3.72;;
40787;SDS011;26497;52.494;7.546;2022-07-11T03:46:44;8.15;;;3.55;;
40787;SDS011;26497;52.494;7.546;2022-07-11T03:49:11;10.88;;;3.70;;
40787;SDS011;26497;52.494;7.546;2022-07-11T03:51:38;7.18;;;3.78;;
40787;SDS011;26497;52.494;7.546;2022-07-11T03:54:05;8.02;;;3.47;;
40787;SDS011;26497;52.494;7.546;2022-07-11T03:56:33;15.90;;;3.95;;
40787;SDS011;26497;52.494;7.546;2022-07-11T03:59:01;13.27;;;4.05;;
40787;SDS011;26497;52.494;7.546;2022-07-11T04:01:28;6.90;;;3.42;;
40787;SDS011;26497;52.494;7.546;2022-07-11T04:03:55;7.55;;;4.15;;
40787;SDS011;26497;52.494;7.546;2022-07-11T04:06:22;4.07;;;3.28;;
40787;SDS011;26497;52.494;7.546;2022-07-11T04:08:49;6.18;;;4.30;;
40787;SDS011;26497;52.494;7.546;2022-07-11T04:11:16;8.48;;;3.45;;
40787;SDS011;26497;52.494;7.546;2022-07-11T04:13:43;10.05;;;3.83;;
40787;SDS011;26497;52.494;7.546;2022-07-11T04:16:11;7.53;;;4.13;;
40787;SDS011;26497;52.494;7.546;2022-07-11T04:18:38;5.28;;;3.35;;
40787;SDS011;26497;52.494;7.546;2022-07-11T04:21:05;8.38;;;4.07;;
40787;SDS011;26497;52.494;7.546;2022-07-11T04:23:32;8.30;;;3.25;;
40787;SDS011;26497;52.494;7.546;2022-07-11T04:25:59;4.90;;;3.03;;
40787;SDS011;26497;52.494;7.546;2022-07-11T04:28:26;8.23;;;4.10;;
40787;SDS011;26497;52.494;7.546;2022-07-11T04:30:53;9.38;;;3.47;;
40787;SDS011;26497;52.494;7.546;2022-07-11T04:33:21;14.98;;;3.33;;
40787;SDS011;26497;52.494;7.546;2022-07-11T04:35:48;7.15;;;2.67;;
40787;SDS011;26497;52.494;7.546;2022-07-11T04:38:15;3.38;;;2.78;;
40787;SDS011;26497;52.494;7.546;2022-07-11T04:40:46;7.57;;;3.72;;
40787;SDS011;26497;52.494;7.546;2022-07-11T04:43:13;11.88;;;2.78;;
40787;SDS011;26497;52.494;7.546;2022-07-11T04:45:40;16.88;;;3.70;;
40787;SDS011;26497;52.494;7.546;2022-07-11T04:48:07;7.05;;;2.88;;
40787;SDS011;26497;52.494;7.546;2022-07-11T04:50:36;9.30;;;2.58;;
40787;SDS011;26497;52.494;7.546;2022-07-11T04:53:03;10.73;;;2.35;;
40787;SDS011;26497;52.494;7.546;2022-07-11T04:55:30;3.35;;;2.30;;
40787;SDS011;26497;52.494;7.546;2022-07-11T04:57:57;3.85;;;2.67;;
40787;SDS011;26497;52.494;7.546;2022-07-11T05:00:24;8.68;;;2.75;;
40787;SDS011;26497;52.494;7.546;2022-07-11T05:02:51;4.88;;;1.98;;
40787;SDS011;26497;52.494;7.546;2022-07-11T05:05:18;9.75;;;2.10;;
40787;SDS011;26497;52.494;7.546;2022-07-11T05:07:47;3.28;;;2.63;;
40787;SDS011;26497;52.494;7.546;2022-07-11T05:10:14;5.63;;;2.60;;
40787;SDS011;26497;52.494;7.546;2022-07-11T05:12:41;5.90;;;2.42;;
40787;SDS011;26497;52.494;7.546;2022-07-11T05:15:09;4.20;;;1.90;;
40787;SDS011;26497;52.494;7.546;2022-07-11T05:17:36;4.50;;;1.48;;
40787;SDS011;26497;52.494;7.546;2022-07-11T05:20:04;2.63;;;1.90;;
40787;SDS011;26497;52.494;7.546;2022-07-11T05:22:32;6.28;;;2.72;;
40787;SDS011;26497;52.494;7.546;2022-07-11T05:25:00;2.15;;;1.40;;
40787;SDS011;26497;52.494;7.546;2022-07-11T05:27:28;1.80;;;1.38;;
40787;SDS011;26497;52.494;7.546;2022-07-11T05:29:54;5.55;;;2.03;;
40787;SDS011;26497;52.494;7.546;2022-07-11T05:32:21;5.05;;;2.20;;
40787;SDS011;26497;52.494;7.546;2022-07-11T05:34:48;8.90;;;1.20;;
40787;SDS011;26497;52.494;7.546;2022-07-11T05:37:15;3.58;;;1.40;;
40787;SDS011;26497;52.494;7.546;2022-07-11T05:39:42;1.65;;;1.15;;
40787;SDS011;26497;52.494;7.546;2022-07-11T05:42:11;4.22;;;1.52;;
40787;SDS011;26497;52.494;7.546;2022-07-11T05:44:38;1.13;;;1.02;;
40787;SDS011;26497;52.494;7.546;2022-07-11T05:47:05;2.00;;;1.08;;
40787;SDS011;26497;52.494;7.546;2022-07-11T05:49:32;0.88;;;0.65;;
40787;SDS011;26497;52.494;7.546;2022-07-11T05:51:59;2.08;;;0.80;;
40787;SDS011;26497;52.494;7.546;2022-07-11T05:54:26;1.95;;;0.82;;
40787;SDS011;26497;52.494;7.546;2022-07-11T05:56:54;3.55;;;0.80;;
40787;SDS011;26497;52.494;7.546;2022-07-11T05:59:22;0.88;;;0.47;;
40787;SDS011;26497;52.494;7.546;2022-07-11T06:01:49;3.50;;;0.40;;
40787;SDS011;26497;52.494;7.546;2022-07-11T06:04:16;0.57;;;0.40;;
40787;SDS011;26497;52.494;7.546;2022-07-11T06:06:43;4.57;;;0.50;;
40787;SDS011;26497;52.494;7.546;2022-07-11T06:09:10;1.08;;;0.45;;
40787;SDS011;26497;52.494;7.546;2022-07-11T06:11:36;0.22;;;0.20;;
40787;SDS011;26497;52.494;7.546;2022-07-11T06:14:03;0.55;;;0.47;;
40787;SDS011;26497;52.494;7.546;2022-07-11T06:16:32;0.50;;;0.30;;
40787;SDS011;26497;52.494;7.546;2022-07-11T06:19:00;3.20;;;0.52;;
40787;SDS011;26497;52.494;7.546;2022-07-11T06:21:27;0.98;;;0.20;;
40787;SDS011;26497;52.494;7.546;2022-07-11T06:23:54;0.90;;;0.20;;
40787;SDS011;26497;52.494;7.546;2022-07-11T06:26:21;0.75;;;0.73;;
40787;SDS011;26497;52.494;7.546;2022-07-11T06:28:48;0.30;;;0.10;;
40787;SDS011;26497;52.494;7.546;2022-07-11T06:31:15;3.80;;;0.25;;
40787;SDS011;26497;52.494;7.546;2022-07-11T06:33:44;0.30;;;0.30;;
40787;SDS011;26497;52.494;7.546;2022-07-11T06:36:11;0.10;;;0.00;;
40787;SDS011;26497;52.494;7.546;2022-07-11T06:38:38;0.10;;;0.00;;
40787;SDS011;26497;52.494;7.546;2022-07-11T06:41:06;0.30;;;0.20;;
40787;SDS011;26497;52.494;7.546;2022-07-11T06:43:33;0.77;;;0.13;;
40787;SDS011;26497;52.494;7.546;2022-07-11T06:46:00;2.10;;;0.10;;
40787;SDS011;26497;52.494;7.546;2022-07-11T06:48:27;0.40;;;0.20;;
40787;SDS011;26497;52.494;7.546;2022-07-11T06:50:55;0.93;;;0.20;;
40787;SDS011;26497;52.494;7.546;2022-07-11T06:53:22;0.10;;;0.10;;
40787;SDS011;26497;52.494;7.546;2022-07-11T06:55:49;0.43;;;0.20;;
40787;SDS011;26497;52.494;7.546;2022-07-11T06:58:16;2.97;;;0.20;;
40787;SDS011;26497;52.494;7.546;2022-07-11T07:00:57;1.00;;;0.10;;
40787;SDS011;26497;52.494;7.546;2022-07-11T07:03:25;0.47;;;0.15;;
40787;SDS011;26497;52.494;7.546;2022-07-11T07:05:53;0.30;;;0.10;;
40787;SDS011;26497;52.494;7.546;2022-07-11T07:08:23;0.32;;;0.32;;
40787;SDS011;26497;52.494;7.546;2022-07-11T07:10:51;0.35;;;0.10;;
40787;SDS011;26497;52.494;7.546;2022-07-11T07:13:19;1.10;;;0.13;;
40787;SDS011;26497;52.494;7.546;2022-07-11T07:15:50;0.57;;;0.30;;
40787;SDS011;26497;52.494;7.546;2022-07-11T07:18:17;0.30;;;0.10;;
40787;SDS011;26497;52.494;7.546;2022-07-11T07:20:45;1.48;;;0.10;;
40787;SDS011;26497;52.494;7.546;2022-07-11T07:23:14;2.35;;;0.10;;
40787;SDS011;26497;52.494;7.546;2022-07-11T07:25:41;0.38;;;0.20;;
40787;SDS011;26497;52.494;7.546;2022-07-11T07:28:09;0.52;;;0.20;;
40787;SDS011;26497;52.494;7.546;2022-07-11T07:30:36;0.30;;;0.10;;
40787;SDS011;26497;52.494;7.546;2022-07-11T07:33:03;0.80;;;0.20;;
40787;SDS011;26497;52.494;7.546;2022-07-11T07:35:30;0.25;;;0.10;;
40787;SDS011;26497;52.494;7.546;2022-07-11T07:37:57;6.82;;;0.10;;
40787;SDS011;26497;52.494;7.546;2022-07-11T07:40:26;0.40;;;0.10;;
40787;SDS011;26497;52.494;7.546;2022-07-11T07:42:53;1.23;;;0.10;;
40787;SDS011;26497;52.494;7.546;2022-07-11T07:45:21;0.43;;;0.05;;
40787;SDS011;26497;52.494;7.546;2022-07-11T07:47:48;0.20;;;0.00;;
40787;SDS011;26497;52.494;7.546;2022-07-11T07:50:15;0.55;;;0.10;;
40787;SDS011;26497;52.494;7.546;2022-07-11T07:52:42;0.93;;;0.10;;
40787;SDS011;26497;52.494;7.546;2022-07-11T07:55:09;1.45;;;0.10;;
40787;SDS011;26497;52.494;7.546;2022-07-11T07:57:37;0.20;;;0.20;;
40787;SDS011;26497;52.494;7.546;2022-07-11T08:00:05;0.30;;;0.10;;
40787;SDS011;26497;52.494;7.546;2022-07-11T08:03:03;1.92;;;0.10;;
40787;SDS011;26497;52.494;7.546;2022-07-11T08:05:31;2.00;;;0.10;;
40787;SDS011;26497;52.494;7.546;2022-07-11T08:07:58;0.13;;;0.13;;
40787;SDS011;26497;52.494;7.546;2022-07-11T08:10:25;0.10;;;0.10;;
40787;SDS011;26497;52.494;7.546;2022-07-11T08:12:54;0.05;;;0.00;;
40787;SDS011;26497;52.494;7.546;2022-07-11T08:15:21;5.22;;;0.70;;
40787;SDS011;26497;52.494;7.546;2022-07-11T08:17:48;0.10;;;0.00;;
40787;SDS011;26497;52.494;7.546;2022-07-11T08:20:15;0.28;;;0.10;;
40787;SDS011;26497;52.494;7.546;2022-07-11T08:22:42;0.15;;;0.10;;
40787;SDS011;26497;52.494;7.546;2022-07-11T08:25:09;0.52;;;0.10;;
40787;SDS011;26497;52.494;7.546;2022-07-11T08:27:36;0.10;;;0.00;;
40787;SDS011;26497;52.494;7.546;2022-07-11T08:30:06;0.55;;;0.30;;
40787;SDS011;26497;52.494;7.546;2022-07-11T08:32:37;0.25;;;0.08;;
40787;SDS011;26497;52.494;7.546;2022-07-11T08:35:05;0.55;;;0.00;;
40787;SDS011;26497;52.494;7.546;2022-07-11T08:37:33;0.30;;;0.00;;
40787;SDS011;26497;52.494;7.546;2022-07-11T08:40:01;0.00;;;0.00;;
40787;SDS011;26497;52.494;7.546;2022-07-11T08:42:29;0.10;;;0.00;;
40787;SDS011;26497;52.494;7.546;2022-07-11T08:44:56;0.13;;;0.00;;
40787;SDS011;26497;52.494;7.546;2022-07-11T08:47:26;0.52;;;0.10;;
40787;SDS011;26497;52.494;7.546;2022-07-11T08:49:56;0.20;;;0.10;;
40787;SDS011;26497;52.494;7.546;2022-07-11T08:52:24;0.03;;;0.00;;
40787;SDS011;26497;52.494;7.546;2022-07-11T08:58:40;0.05;;;0.00;;
40787;SDS011;26497;52.494;7.546;2022-07-11T09:01:15;0.98;;;0.10;;
40787;SDS011;26497;52.494;7.546;2022-07-11T09:03:45;0.20;;;0.10;;
40787;SDS011;26497;52.494;7.546;2022-07-11T09:06:13;0.10;;;0.10;;
40787;SDS011;26497;52.494;7.546;2022-07-11T09:08:40;10.93;;;0.75;;
40787;SDS011;26497;52.494;7.546;2022-07-11T09:11:07;0.00;;;0.00;;
40787;SDS011;26497;52.494;7.546;2022-07-11T09:13:35;0.10;;;0.00;;
40787;SDS011;26497;52.494;7.546;2022-07-11T09:16:03;0.28;;;0.10;;
40787;SDS011;26497;52.494;7.546;2022-07-11T09:18:33;0.40;;;0.20;;
40787;SDS011;26497;52.494;7.546;2022-07-11T09:21:04;0.00;;;0.00;;
40787;SDS011;26497;52.494;7.546;2022-07-11T09:23:50;0.10;;;0.00;;
40787;SDS011;26497;52.494;7.546;2022-07-11T09:26:38;0.28;;;0.10;;
40787;SDS011;26497;52.494;7.546;2022-07-11T09:29:08;0.20;;;0.03;;
40787;SDS011;26497;52.494;7.546;2022-07-11T09:31:36;0.00;;;0.00;;
40787;SDS011;26497;52.494;7.546;2022-07-11T09:34:06;0.30;;;0.10;;
40787;SDS011;26497;52.494;7.546;2022-07-11T09:36:37;2.30;;;0.13;;
40787;SDS011;26497;52.494;7.546;2022-07-11T09:39:10;0.75;;;0.20;;
40787;SDS011;26497;52.494;7.546;2022-07-11T09:41:40;0.30;;;0.20;;
40787;SDS011;26497;52.494;7.546;2022-07-11T09:44:08;0.32;;;0.10;;
40787;SDS011;26497;52.494;7.546;2022-07-11T09:46:39;0.40;;;0.20;;
40787;SDS011;26497;52.494;7.546;2022-07-11T09:49:06;0.30;;;0.30;;
40787;SDS011;26497;52.494;7.546;2022-07-11T09:51:34;1.27;;;0.20;;
40787;SDS011;26497;52.494;7.546;2022-07-11T09:54:04;0.95;;;0.20;;
40787;SDS011;26497;52.494;7.546;2022-07-11T09:56:34;0.47;;;0.20;;
40787;SDS011;26497;52.494;7.546;2022-07-11T09:59:06;2.95;;;0.30;;
40787;SDS011;26497;52.494;7.546;2022-07-11T10:01:36;0.40;;;0.10;;
40787;SDS011;26497;52.494;7.546;2022-07-11T10:04:04;0.57;;;0.17;;
40787;SDS011;26497;52.494;7.546;2022-07-11T10:06:33;0.10;;;0.10;;
40787;SDS011;26497;52.494;7.546;2022-07-11T10:09:02;3.47;;;0.10;;
40787;SDS011;26497;52.494;7.546;2022-07-11T10:14:54;0.22;;;0.13;;
40787;SDS011;26497;52.494;7.546;2022-07-11T10:17:25;0.35;;;0.10;;
40787;SDS011;26497;52.494;7.546;2022-07-11T10:20:02;0.30;;;0.10;;
40787;SDS011;26497;52.494;7.546;2022-07-11T10:22:37;0.85;;;0.10;;
40787;SDS011;26497;52.494;7.546;2022-07-11T10:25:13;0.20;;;0.10;;
40787;SDS011;26497;52.494;7.546;2022-07-11T10:27:58;0.93;;;0.20;;
40787;SDS011;26497;52.494;7.546;2022-07-11T10:30:42;0.82;;;0.05;;
40787;SDS011;26497;52.494;7.546;2022-07-11T10:33:12;0.35;;;0.00;;
40787;SDS011;26497;52.494;7.546;2022-07-11T10:35:40;0.55;;;0.15;;
40787;SDS011;26497;52.494;7.546;2022-07-11T10:38:09;0.60;;;0.10;;
40787;SDS011;26497;52.494;7.546;2022-07-11T10:40:41;0.60;;;0.10;;
40787;SDS011;26497;52.494;7.546;2022-07-11T10:43:11;0.38;;;0.10;;
40787;SDS011;26497;52.494;7.546;2022-07-11T10:45:53;5.82;;;0.22;;
40787;SDS011;26497;52.494;7.546;2022-07-11T10:48:24;2.78;;;0.20;;
40787;SDS011;26497;52.494;7.546;2022-07-11T10:50:53;0.00;;;0.00;;
40787;SDS011;26497;52.494;7.546;2022-07-11T10:53:31;0.38;;;0.00;;
40787;SDS011;26497;52.494;7.546;2022-07-11T10:59:28;0.10;;;0.10;;
40787;SDS011;26497;52.494;7.546;2022-07-11T11:02:01;0.93;;;0.10;;
40787;SDS011;26497;52.494;7.546;2022-07-11T11:04:43;0.73;;;0.10;;
40787;SDS011;26497;52.494;7.546;2022-07-11T11:07:28;0.30;;;0.10;;
40787;SDS011;26497;52.494;7.546;2022-07-11T11:10:01;1.23;;;0.00;;
40787;SDS011;26497;52.494;7.546;2022-07-11T11:13:13;1.15;;;0.10;;
40787;SDS011;26497;52.494;7.546;2022-07-11T11:15:41;1.23;;;0.00;;
40787;SDS011;26497;52.494;7.546;2022-07-11T11:21:17;2.58;;;0.50;;
40787;SDS011;26497;52.494;7.546;2022-07-11T11:24:02;1.02;;;0.10;;
40787;SDS011;26497;52.494;7.546;2022-07-11T11:26:46;3.13;;;0.13;;
40787;SDS011;26497;52.494;7.546;2022-07-11T11:29:20;0.65;;;0.10;;
40787;SDS011;26497;52.494;7.546;2022-07-11T11:31:53;0.13;;;0.00;;
40787;SDS011;26497;52.494;7.546;2022-07-11T11:34:23;0.30;;;0.10;;
40787;SDS011;26497;52.494;7.546;2022-07-11T11:36:54;0.10;;;0.00;;
40787;SDS011;26497;52.494;7.546;2022-07-11T11:39:24;0.10;;;0.10;;
40787;SDS011;26497;52.494;7.546;2022-07-11T11:42:00;1.27;;;0.00;;
40787;SDS011;26497;52.494;7.546;2022-07-11T11:44:33;0.20;;;0.00;;
40787;SDS011;26497;52.494;7.546;2022-07-11T11:49:40;0.00;;;0.00;;
40787;SDS011;26497;52.494;7.546;2022-07-11T11:52:08;1.65;;;0.17;;
40787;SDS011;26497;52.494;7.546;2022-07-11T11:54:37;0.30;;;0.00;;
40787;SDS011;26497;52.494;7.546;2022-07-11T11:57:05;0.00;;;0.00;;
40787;SDS011;26497;52.494;7.546;2022-07-11T11:59:37;2.17;;;0.15;;
40787;SDS011;26497;52.494;7.546;2022-07-11T12:02:05;6.82;;;0.55;;
40787;SDS011;26497;52.494;7.546;2022-07-11T12:04:34;0.38;;;0.15;;
40787;SDS011;26497;52.494;7.546;2022-07-11T12:07:02;2.72;;;0.20;;
40787;SDS011;26497;52.494;7.546;2022-07-11T12:09:30;0.98;;;0.30;;
40787;SDS011;26497;52.494;7.546;2022-07-11T12:12:16;0.10;;;0.08;;
40787;SDS011;26497;52.494;7.546;2022-07-11T12:15:04;3.47;;;0.10;;
40787;SDS011;26497;52.494;7.546;2022-07-11T12:17:33;0.10;;;0.00;;
40787;SDS011;26497;52.494;7.546;2022-07-11T12:20:02;0.20;;;0.00;;
40787;SDS011;26497;52.494;7.546;2022-07-11T12:22:39;0.50;;;0.00;;
40787;SDS011;26497;52.494;7.546;2022-07-11T12:25:09;8.48;;;0.43;;
40787;SDS011;26497;52.494;7.546;2022-07-11T12:27:37;0.30;;;0.15;;
40787;SDS011;26497;52.494;7.546;2022-07-11T12:30:06;0.20;;;0.05;;
40787;SDS011;26497;52.494;7.546;2022-07-11T12:33:01;3.05;;;0.10;;
40787;SDS011;26497;52.494;7.546;2022-07-11T12:35:29;0.32;;;0.10;;
40787;SDS011;26497;52.494;7.546;2022-07-11T12:37:56;1.90;;;0.20;;
40787;SDS011;26497;52.494;7.546;2022-07-11T12:40:23;0.28;;;0.20;;
40787;SDS011;26497;52.494;7.546;2022-07-11T12:42:50;0.00;;;0.00;;
40787;SDS011;26497;52.494;7.546;2022-07-11T12:45:19;0.35;;;0.00;;
40787;SDS011;26497;52.494;7.546;2022-07-11T12:47:46;1.10;;;0.25;;
40787;SDS011;26497;52.494;7.546;2022-07-11T12:50:15;0.13;;;0.08;;
40787;SDS011;26497;52.494;7.546;2022-07-11T12:52:45;0.23;;;0.10;;
40787;SDS011;26497;52.494;7.546;2022-07-11T12:55:21;0.63;;;0.20;;
40787;SDS011;26497;52.494;7.546;2022-07-11T12:58:00;0.82;;;0.10;;
40787;SDS011;26497;52.494;7.546;2022-07-11T13:03:01;0.43;;;0.10;;
40787;SDS011;26497;52.494;7.546;2022-07-11T13:05:29;3.35;;;0.10;;
40787;SDS011;26497;52.494;7.546;2022-07-11T13:08:20;0.52;;;0.20;;
40787;SDS011;26497;52.494;7.546;2022-07-11T13:11:06;0.55;;;0.05;;
40787;SDS011;26497;52.494;7.546;2022-07-11T13:13:33;1.65;;;0.40;;
40787;SDS011;26497;52.494;7.546;2022-07-11T13:16:02;8.00;;;0.20;;
40787;SDS011;26497;52.494;7.546;2022-07-11T13:18:29;0.40;;;0.28;;
40787;SDS011;26497;52.494;7.546;2022-07-11T13:20:57;0.30;;;0.17;;
40787;SDS011;26497;52.494;7.546;2022-07-11T13:23:24;0.80;;;0.10;;
40787;SDS011;26497;52.494;7.546;2022-07-11T13:25:51;0.28;;;0.25;;
40787;SDS011;26497;52.494;7.546;2022-07-11T13:28:18;0.30;;;0.30;;
40787;SDS011;26497;52.494;7.546;2022-07-11T13:30:45;1.15;;;0.17;;
40787;SDS011;26497;52.494;7.546;2022-07-11T13:33:14;0.50;;;0.10;;
40787;SDS011;26497;52.494;7.546;2022-07-11T13:35:41;1.65;;;0.10;;
40787;SDS011;26497;52.494;7.546;2022-07-11T13:38:08;1.50;;;0.30;;
40787;SDS011;26497;52.494;7.546;2022-07-11T13:40:35;1.58;;;0.10;;
40787;SDS011;26497;52.494;7.546;2022-07-11T13:43:02;0.30;;;0.20;;
40787;SDS011;26497;52.494;7.546;2022-07-11T13:45:29;0.30;;;0.10;;
40787;SDS011;26497;52.494;7.546;2022-07-11T13:47:56;0.88;;;0.30;;
40787;SDS011;26497;52.494;7.546;2022-07-11T13:50:25;0.15;;;0.10;;
40787;SDS011;26497;52.494;7.546;2022-07-11T13:52:52;4.03;;;0.20;;
40787;SDS011;26497;52.494;7.546;2022-07-11T13:55:20;0.95;;;0.10;;
40787;SDS011;26497;52.494;7.546;2022-07-11T13:57:49;1.70;;;0.20;;
40787;SDS011;26497;52.494;7.546;2022-07-11T14:00:18;1.00;;;0.10;;
40787;SDS011;26497;52.494;7.546;2022-07-11T14:02:45;0.38;;;0.20;;
40787;SDS011;26497;52.494;7.546;2022-07-11T14:05:13;1.98;;;0.17;;
40787;SDS011;26497;52.494;7.546;2022-07-11T14:07:41;5.40;;;0.65;;
40787;SDS011;26497;52.494;7.546;2022-07-11T14:10:08;0.95;;;0.10;;
40787;SDS011;26497;52.494;7.546;2022-07-11T14:12:35;0.80;;;0.10;;
40787;SDS011;26497;52.494;7.546;2022-07-11T14:15:03;0.45;;;0.10;;
40787;SDS011;26497;52.494;7.546;2022-07-11T14:17:33;0.35;;;0.10;;
40787;SDS011;26497;52.494;7.546;2022-07-11T14:20:00;0.17;;;0.08;;
40787;SDS011;26497;52.494;7.546;2022-07-11T14:22:27;2.47;;;0.15;;
40787;SDS011;26497;52.494;7.546;2022-07-11T14:24:55;0.22;;;0.08;;
40787;SDS011;26497;52.494;7.546;2022-07-11T14:27:22;0.25;;;0.00;;
40787;SDS011;26497;52.494;7.546;2022-07-11T14:29:49;0.40;;;0.10;;
40787;SDS011;26497;52.494;7.546;2022-07-11T14:32:18;0.65;;;0.20;;
40787;SDS011;26497;52.494;7.546;2022-07-11T14:34:45;0.10;;;0.10;;
40787;SDS011;26497;52.494;7.546;2022-07-11T14:37:13;5.45;;;0.38;;
40787;SDS011;26497;52.494;7.546;2022-07-11T14:39:39;0.13;;;0.10;;
40787;SDS011;26497;52.494;7.546;2022-07-11T14:42:08;0.17;;;0.10;;
40787;SDS011;26497;52.494;7.546;2022-07-11T14:44:35;0.75;;;0.05;;
40787;SDS011;26497;52.494;7.546;2022-07-11T14:47:02;0.38;;;0.05;;
40787;SDS011;26497;52.494;7.546;2022-07-11T14:49:29;0.00;;;0.00;;
40787;SDS011;26497;52.494;7.546;2022-07-11T14:51:56;0.17;;;0.10;;
40787;SDS011;26497;52.494;7.546;2022-07-11T14:54:23;0.43;;;0.10;;
40787;SDS011;26497;52.494;7.546;2022-07-11T14:56:50;2.88;;;0.20;;
40787;SDS011;26497;52.494;7.546;2022-07-11T14:59:19;0.20;;;0.08;;
40787;SDS011;26497;52.494;7.546;2022-07-11T15:01:46;0.28;;;0.10;;
40787;SDS011;26497;52.494;7.546;2022-07-11T15:04:13;0.25;;;0.10;;
40787;SDS011;26497;52.494;7.546;2022-07-11T15:06:42;0.05;;;0.00;;
40787;SDS011;26497;52.494;7.546;2022-07-11T15:09:27;0.85;;;0.00;;
40787;SDS011;26497;52.494;7.546;2022-07-11T15:12:11;0.25;;;0.00;;
40787;SDS011;26497;52.494;7.546;2022-07-11T15:14:50;0.30;;;0.20;;
40787;SDS011;26497;52.494;7.546;2022-07-11T15:17:18;0.38;;;0.08;;